Time;durP1;ratioP1;P1;durP2;ratioP2;P2;SDS_P1;SDS_P2;PMS_P1;PMS_P2;Temp;Humidity;BMP_temperature;BMP_pressure;BME280_temperature;BME280_humidity;BME280_pressure;Samples;Min_cycle;Max_cycle;Signal;HPM_P1;HPM_P2
2024/02/21 00:02:12;;;;;;;11.05;2.30;;;9.70;99.90;;;;;;5047975;28;20059;-66
2024/02/21 00:04:38;;;;;;;11.98;1.88;;;9.70;99.90;;;;;;5064480;28;20072;-66
2024/02/21 00:07:05;;;;;;;8.73;2.70;;;9.70;99.90;;;;;;5048173;28;20059;-66
2024/02/21 00:09:30;;;;;;;8.45;1.52;;;9.70;99.90;;;;;;5047051;28;20064;-66
2024/02/21 00:11:57;;;;;;;14.27;2.70;;;9.60;99.90;;;;;;5047111;28;20068;-66
2024/02/21 00:14:22;;;;;;;13.48;2.30;;;9.70;99.90;;;;;;5048979;28;20045;-66
2024/02/21 00:16:48;;;;;;;15.38;2.53;;;9.60;99.90;;;;;;5046898;28;20043;-66
2024/02/21 00:19:14;;;;;;;11.55;1.75;;;9.70;99.90;;;;;;5064274;28;20503;-66
2024/02/21 00:21:40;;;;;;;14.60;2.63;;;9.70;99.90;;;;;;5048004;28;20049;-66
2024/02/21 00:24:06;;;;;;;11.90;1.88;;;9.60;99.90;;;;;;5046289;28;20103;-66
2024/02/21 00:26:31;;;;;;;15.45;2.30;;;9.60;99.90;;;;;;5065933;28;20071;-66
2024/02/21 00:28:57;;;;;;;11.32;2.42;;;9.60;99.90;;;;;;5045032;28;20036;-66
2024/02/21 00:31:23;;;;;;;13.95;2.22;;;9.70;99.90;;;;;;5046085;28;20063;-66
2024/02/21 00:33:48;;;;;;;13.60;2.28;;;9.60;99.90;;;;;;5047923;28;20049;-66
2024/02/21 00:36:15;;;;;;;14.02;2.10;;;9.60;99.90;;;;;;5046551;28;20060;-66
2024/02/21 00:38:40;;;;;;;11.13;1.90;;;9.60;99.90;;;;;;5045935;28;20517;-66
2024/02/21 00:41:06;;;;;;;14.85;2.55;;;9.70;99.90;;;;;;5066310;28;20069;-66
2024/02/21 00:43:32;;;;;;;14.82;2.75;;;9.60;99.90;;;;;;5064374;28;20043;-66
2024/02/21 00:45:57;;;;;;;14.73;2.70;;;9.70;99.90;;;;;;5048060;28;20490;-66
2024/02/21 00:48:23;;;;;;;16.33;2.10;;;9.60;99.90;;;;;;5044057;28;20037;-66
2024/02/21 00:50:48;;;;;;;17.02;2.95;;;9.60;99.90;;;;;;5064336;28;20036;-66
2024/02/21 00:53:14;;;;;;;13.43;2.92;;;9.60;99.90;;;;;;5045160;28;20116;-66
2024/02/21 00:55:40;;;;;;;13.70;1.90;;;9.60;99.90;;;;;;5047245;28;20048;-66
2024/02/21 00:58:05;;;;;;;13.45;2.55;;;9.60;99.90;;;;;;5046156;28;20052;-66
2024/02/21 01:00:31;;;;;;;17.08;3.72;;;9.60;99.90;;;;;;5046328;28;20047;-67
2024/02/21 01:02:57;;;;;;;13.38;2.72;;;9.60;99.90;;;;;;5065638;28;20044;-66
2024/02/21 01:05:23;;;;;;;10.15;1.88;;;9.50;99.90;;;;;;5042496;28;20507;-66
2024/02/21 01:07:48;;;;;;;14.30;2.35;;;9.50;99.90;;;;;;5047981;28;20131;-66
2024/02/21 01:10:14;;;;;;;14.75;2.42;;;9.40;99.90;;;;;;5063342;28;20446;-66
2024/02/21 01:12:39;;;;;;;12.13;2.65;;;9.50;99.90;;;;;;5046247;28;20032;-66
2024/02/21 01:15:05;;;;;;;14.43;3.22;;;9.40;99.90;;;;;;5048378;28;20052;-66
2024/02/21 01:17:31;;;;;;;14.57;3.28;;;9.40;99.90;;;;;;5045521;28;20087;-66
2024/02/21 01:19:56;;;;;;;15.70;3.55;;;9.40;99.90;;;;;;5046040;28;20044;-66
2024/02/21 01:22:22;;;;;;;11.38;3.85;;;9.40;99.90;;;;;;5064747;28;20043;-66
2024/02/21 01:24:47;;;;;;;10.05;3.35;;;9.40;99.90;;;;;;5043999;28;20972;-66
2024/02/21 01:27:13;;;;;;;20.42;6.13;;;9.30;99.90;;;;;;5050598;28;20449;-66
2024/02/21 01:29:39;;;;;;;19.55;6.82;;;9.30;99.90;;;;;;5062502;28;20068;-66
2024/02/21 01:32:05;;;;;;;19.90;7.10;;;9.30;99.90;;;;;;5047166;28;20033;-66
2024/02/21 01:34:30;;;;;;;18.42;6.85;;;9.30;99.90;;;;;;5043391;28;20047;-66
2024/02/21 01:36:56;;;;;;;20.67;6.90;;;9.30;99.90;;;;;;5063150;28;20041;-66
2024/02/21 01:39:21;;;;;;;26.63;8.13;;;9.30;99.90;;;;;;5046270;28;20047;-66
2024/02/21 01:41:47;;;;;;;21.42;7.95;;;9.30;99.90;;;;;;5046380;28;20127;-66
2024/02/21 01:44:13;;;;;;;26.45;7.40;;;9.30;99.90;;;;;;5063882;28;20040;-66
2024/02/21 01:46:39;;;;;;;18.50;7.43;;;9.20;99.90;;;;;;5045428;28;20041;-66
2024/02/21 01:49:05;;;;;;;19.85;6.88;;;9.20;99.90;;;;;;5047626;28;20404;-66
2024/02/21 01:51:31;;;;;;;22.95;7.60;;;9.20;99.90;;;;;;5052346;28;21481;-66
2024/02/21 01:53:58;;;;;;;22.20;7.63;;;9.20;99.90;;;;;;5084527;28;20037;-66
2024/02/21 01:56:24;;;;;;;20.60;6.95;;;9.30;99.90;;;;;;5049714;28;20067;-66
2024/02/21 01:58:51;;;;;;;23.20;7.15;;;9.20;99.90;;;;;;5066127;28;20085;-66
2024/02/21 02:01:17;;;;;;;25.50;7.75;;;9.20;99.90;;;;;;5048535;28;20044;-66
2024/02/21 02:03:45;;;;;;;23.52;7.70;;;9.10;99.90;;;;;;5066828;28;20028;-66
2024/02/21 02:06:10;;;;;;;21.27;6.68;;;9.10;99.90;;;;;;5048373;28;20044;-66
2024/02/21 02:08:36;;;;;;;20.00;7.38;;;9.10;99.90;;;;;;5048330;28;20391;-66
2024/02/21 02:11:02;;;;;;;22.77;7.32;;;9.10;99.90;;;;;;5050629;28;20189;-66
2024/02/21 02:13:28;;;;;;;22.95;7.43;;;9.10;99.90;;;;;;5066402;28;20115;-66
2024/02/21 02:15:54;;;;;;;17.83;7.20;;;9.00;99.90;;;;;;5048387;28;20052;-65
2024/02/21 02:18:20;;;;;;;20.88;6.60;;;9.00;99.90;;;;;;5051461;28;20068;-66
2024/02/21 02:20:47;;;;;;;21.55;6.65;;;9.00;99.90;;;;;;5067579;28;20406;-67
2024/02/21 02:23:23;;;;;;;27.05;6.07;;;9.00;99.90;;;;;;5049840;28;20047;-67
2024/02/21 02:25:51;;;;;;;25.00;7.35;;;9.00;99.90;;;;;;5050417;28;20040;-66
2024/02/21 02:28:17;;;;;;;21.08;6.30;;;9.10;99.90;;;;;;5067008;28;20128;-67
2024/02/21 02:30:43;;;;;;;22.17;6.28;;;9.00;99.90;;;;;;5047130;28;20179;-67
2024/02/21 02:33:09;;;;;;;20.35;6.13;;;9.00;99.90;;;;;;5068911;28;20044;-67
2024/02/21 02:35:36;;;;;;;20.48;5.13;;;9.00;99.90;;;;;;5052163;28;20145;-66
2024/02/21 02:38:02;;;;;;;22.17;4.95;;;9.00;99.90;;;;;;5052505;28;20382;-66
2024/02/21 02:40:28;;;;;;;23.55;4.68;;;9.00;99.90;;;;;;5052090;28;20478;-66
2024/02/21 02:42:57;;;;;;;18.17;4.63;;;8.90;99.90;;;;;;5067482;28;20051;-67
2024/02/21 02:45:23;;;;;;;23.67;4.35;;;8.90;99.90;;;;;;5079213;28;20047;-67
2024/02/21 02:47:49;;;;;;;16.02;4.97;;;9.00;99.90;;;;;;5056345;28;20120;-67
2024/02/21 02:50:15;;;;;;;17.83;4.43;;;8.90;99.90;;;;;;5035990;28;20127;-67
2024/02/21 02:52:41;;;;;;;20.73;5.35;;;9.00;99.90;;;;;;5051646;28;20384;-67
2024/02/21 02:55:07;;;;;;;17.52;4.45;;;9.00;99.90;;;;;;5069203;28;20051;-67
2024/02/21 02:57:33;;;;;;;20.15;4.43;;;8.90;99.90;;;;;;5052742;28;20043;-67
2024/02/21 02:59:58;;;;;;;14.23;4.18;;;8.90;99.90;;;;;;5038387;28;20040;-66
2024/02/21 03:02:24;;;;;;;21.95;3.92;;;9.00;99.90;;;;;;5067705;28;20049;-66
2024/02/21 03:04:50;;;;;;;21.38;5.03;;;8.90;99.90;;;;;;5064172;28;20467;-66
2024/02/21 03:07:15;;;;;;;23.52;5.53;;;8.90;99.90;;;;;;5052251;28;20059;-67
2024/02/21 03:09:44;;;;;;;16.05;4.38;;;9.00;99.90;;;;;;5068020;28;20055;-66
2024/02/21 03:12:10;;;;;;;25.50;5.38;;;8.90;99.90;;;;;;5049957;28;20048;-67
2024/02/21 03:14:36;;;;;;;19.33;5.05;;;9.00;99.90;;;;;;5049348;28;20648;-66
2024/02/21 03:17:02;;;;;;;22.52;4.90;;;8.90;99.90;;;;;;5053026;28;20084;-66
2024/02/21 03:19:28;;;;;;;18.23;4.25;;;8.90;99.90;;;;;;5054685;28;20036;-66
2024/02/21 03:21:54;;;;;;;24.73;5.60;;;9.00;99.90;;;;;;5068906;28;20029;-66
2024/02/21 03:24:20;;;;;;;20.38;4.97;;;9.00;99.90;;;;;;5071291;28;20029;-67
2024/02/21 03:26:47;;;;;;;19.35;3.92;;;8.90;99.90;;;;;;5050967;28;20069;-66
2024/02/21 03:29:14;;;;;;;23.75;5.18;;;9.00;99.90;;;;;;5082164;28;20052;-66
2024/02/21 03:31:40;;;;;;;19.13;4.65;;;8.90;99.90;;;;;;5045646;28;20032;-66
2024/02/21 03:34:06;;;;;;;17.42;5.25;;;8.90;99.90;;;;;;5045550;28;20106;-66
2024/02/21 03:36:31;;;;;;;19.95;5.45;;;8.90;99.90;;;;;;5080057;28;20039;-66
2024/02/21 03:38:57;;;;;;;20.38;5.18;;;8.90;99.90;;;;;;5046249;28;20037;-67
2024/02/21 03:41:23;;;;;;;19.80;4.75;;;8.90;99.90;;;;;;5065177;28;20047;-67
2024/02/21 03:43:48;;;;;;;20.25;4.53;;;8.90;99.90;;;;;;5065816;28;20041;-66
2024/02/21 03:46:15;;;;;;;21.45;5.70;;;8.90;99.90;;;;;;5047397;28;20036;-66
2024/02/21 03:48:41;;;;;;;13.82;4.90;;;8.90;99.90;;;;;;5046262;28;20512;-67
2024/02/21 03:51:06;;;;;;;19.17;5.20;;;8.90;99.90;;;;;;5066048;28;20033;-67
2024/02/21 03:53:32;;;;;;;26.65;5.90;;;8.90;99.90;;;;;;5048125;28;20101;-66
2024/02/21 03:56:02;;;;;;;21.55;5.82;;;8.90;99.90;;;;;;5067086;28;20036;-66
2024/02/21 03:58:28;;;;;;;27.35;5.43;;;8.90;99.90;;;;;;5047715;28;20056;-67
2024/02/21 04:00:54;;;;;;;19.27;5.65;;;8.90;99.90;;;;;;5063144;28;20024;-67
2024/02/21 04:03:19;;;;;;;22.75;7.45;;;8.90;99.90;;;;;;5061718;28;20094;-66
2024/02/21 04:05:45;;;;;;;18.95;5.78;;;8.90;99.90;;;;;;5046487;28;20494;-66
2024/02/21 04:08:11;;;;;;;28.60;7.63;;;8.90;99.90;;;;;;5045405;28;20111;-67
2024/02/21 04:10:37;;;;;;;22.38;6.47;;;8.90;99.90;;;;;;5064097;28;20029;-67
2024/02/21 04:13:04;;;;;;;24.38;6.65;;;9.00;99.90;;;;;;5047070;28;20033;-67
2024/02/21 04:15:29;;;;;;;26.23;7.20;;;8.90;99.90;;;;;;5046734;28;20101;-67
2024/02/21 04:17:55;;;;;;;25.88;6.93;;;8.90;99.90;;;;;;5044854;28;20135;-67
2024/02/21 04:20:20;;;;;;;21.63;6.57;;;8.90;99.90;;;;;;5063238;28;20391;-67
2024/02/21 04:22:46;;;;;;;27.38;8.18;;;8.90;99.90;;;;;;5064694;28;20040;-66
2024/02/21 04:25:12;;;;;;;22.20;7.85;;;8.90;99.90;;;;;;5046760;28;20081;-67
2024/02/21 04:27:41;;;;;;;18.00;6.25;;;8.90;99.90;;;;;;5060965;28;20761;-67
2024/02/21 04:30:08;;;;;;;26.55;8.23;;;8.90;99.90;;;;;;5062694;28;20426;-67
2024/02/21 04:32:34;;;;;;;34.67;7.40;;;8.90;99.90;;;;;;5065088;28;20040;-67
2024/02/21 04:34:59;;;;;;;27.08;7.95;;;8.90;99.90;;;;;;5050323;28;20055;-67
2024/02/21 04:37:25;;;;;;;30.00;8.75;;;8.90;99.90;;;;;;5043710;28;20047;-67
2024/02/21 04:39:51;;;;;;;29.27;7.95;;;8.90;99.90;;;;;;5047753;28;20462;-67
2024/02/21 04:42:17;;;;;;;26.42;9.45;;;8.90;99.90;;;;;;5045266;28;20839;-67
2024/02/21 04:44:42;;;;;;;29.13;7.88;;;8.90;99.90;;;;;;5034741;28;20364;-67
2024/02/21 04:47:08;;;;;;;28.55;9.63;;;8.90;99.90;;;;;;5062818;28;20428;-67
2024/02/21 04:49:34;;;;;;;36.63;9.32;;;8.90;99.90;;;;;;5046471;28;20043;-67
2024/02/21 04:52:00;;;;;;;30.27;9.05;;;8.80;99.90;;;;;;5046436;28;20028;-66
2024/02/21 04:54:26;;;;;;;33.17;9.25;;;8.90;99.90;;;;;;5062029;28;20381;-66
2024/02/21 04:56:52;;;;;;;29.20;9.45;;;8.90;99.90;;;;;;5063505;28;20039;-66
2024/02/21 04:59:18;;;;;;;33.92;10.13;;;8.90;99.90;;;;;;5061780;28;20040;-66
2024/02/21 05:01:43;;;;;;;35.15;8.38;;;8.90;99.90;;;;;;5063068;28;20024;-67
2024/02/21 05:04:09;;;;;;;34.25;9.27;;;8.90;99.90;;;;;;5048248;28;20036;-67
2024/02/21 05:06:41;;;;;;;24.67;7.65;;;8.90;99.90;;;;;;5045440;28;20495;-67
2024/02/21 05:09:08;;;;;;;30.58;8.15;;;8.90;99.90;;;;;;5062038;28;20033;-66
2024/02/21 05:11:37;;;;;;;29.65;9.48;;;8.90;99.90;;;;;;5064655;28;20050;-66
2024/02/21 05:14:04;;;;;;;29.40;7.75;;;8.90;99.90;;;;;;5045306;28;20059;-66
2024/02/21 05:16:30;;;;;;;35.90;8.13;;;8.90;99.90;;;;;;5048752;28;20136;-67
2024/02/21 05:18:57;;;;;;;29.10;8.35;;;9.00;99.90;;;;;;5029191;28;20132;-67
2024/02/21 05:21:27;;;;;;;30.65;6.93;;;8.90;99.90;;;;;;5048842;28;21486;-67
2024/02/21 05:23:52;;;;;;;29.98;9.10;;;8.90;99.90;;;;;;5062476;28;20368;-67
2024/02/21 05:26:27;;;;;;;26.00;7.18;;;8.90;99.90;;;;;;5062479;28;20052;-67
2024/02/21 05:28:53;;;;;;;33.65;7.07;;;8.90;99.90;;;;;;5045008;28;20032;-67
2024/02/21 05:31:19;;;;;;;29.45;7.57;;;8.90;99.90;;;;;;5048615;28;20131;-66
2024/02/21 05:33:45;;;;;;;27.67;7.70;;;8.90;99.90;;;;;;5044764;28;20032;-66
2024/02/21 05:36:11;;;;;;;32.75;7.82;;;8.90;99.90;;;;;;5043741;28;20449;-67
2024/02/21 05:38:37;;;;;;;27.30;6.55;;;8.90;99.90;;;;;;5046878;28;20090;-66
2024/02/21 05:41:03;;;;;;;34.63;7.00;;;9.00;99.90;;;;;;5044865;28;20045;-67
2024/02/21 05:43:29;;;;;;;33.25;6.40;;;8.90;99.90;;;;;;5047442;28;20486;-67
2024/02/21 05:45:55;;;;;;;33.65;6.20;;;8.90;99.90;;;;;;5045244;28;20040;-66
2024/02/21 05:48:21;;;;;;;28.88;5.53;;;8.90;99.90;;;;;;5064132;28;20032;-66
2024/02/21 05:50:47;;;;;;;32.53;5.45;;;8.90;99.90;;;;;;5067345;28;20390;-66
2024/02/21 05:53:13;;;;;;;25.70;6.05;;;9.00;99.90;;;;;;5046610;28;20040;-66
2024/02/21 05:55:39;;;;;;;29.35;5.68;;;8.90;99.90;;;;;;5066979;28;20028;-66
2024/02/21 05:58:05;;;;;;;28.95;5.43;;;9.00;99.90;;;;;;5070343;28;20440;-66
2024/02/21 06:00:31;;;;;;;40.20;7.30;;;9.00;99.90;;;;;;5044898;28;20076;-66
2024/02/21 06:02:57;;;;;;;28.50;7.15;;;8.90;99.90;;;;;;5066174;28;20071;-66
2024/02/21 06:05:23;;;;;;;26.45;7.15;;;9.00;99.90;;;;;;5045933;28;20044;-66
2024/02/21 06:07:48;;;;;;;36.80;8.45;;;9.00;99.90;;;;;;5035651;28;20048;-66
2024/02/21 06:10:14;;;;;;;27.80;8.55;;;8.90;99.90;;;;;;5068216;28;20074;-66
2024/02/21 06:12:40;;;;;;;28.38;7.72;;;8.90;99.90;;;;;;5052250;28;20096;-66
2024/02/21 06:15:06;;;;;;;34.88;7.80;;;9.00;99.90;;;;;;5044132;28;20055;-66
2024/02/21 06:17:31;;;;;;;33.65;9.75;;;9.00;99.90;;;;;;5045191;28;20189;-67
2024/02/21 06:19:57;;;;;;;35.92;7.10;;;9.00;99.90;;;;;;5033061;28;20439;-66
2024/02/21 06:22:24;;;;;;;25.08;7.50;;;9.00;99.90;;;;;;5050515;28;20141;-66
2024/02/21 06:24:50;;;;;;;29.60;7.22;;;9.00;99.90;;;;;;5043450;28;20071;-66
2024/02/21 06:27:16;;;;;;;31.13;7.22;;;8.90;99.90;;;;;;5047125;28;20045;-66
2024/02/21 06:29:42;;;;;;;25.88;5.95;;;9.00;99.90;;;;;;5045887;28;20048;-66
2024/02/21 06:32:07;;;;;;;26.48;7.00;;;9.00;99.90;;;;;;5046009;28;20037;-66
2024/02/21 06:34:33;;;;;;;26.73;6.65;;;9.00;99.90;;;;;;5063159;28;20090;-66
2024/02/21 06:36:59;;;;;;;23.95;5.30;;;9.00;99.90;;;;;;5066332;28;20549;-66
2024/02/21 06:39:25;;;;;;;29.20;7.18;;;9.00;99.90;;;;;;5048141;28;20042;-66
2024/02/21 06:41:50;;;;;;;22.65;6.10;;;9.00;99.90;;;;;;5063586;28;20048;-66
2024/02/21 06:44:19;;;;;;;23.13;6.20;;;9.00;99.90;;;;;;5046898;28;20048;-66
2024/02/21 06:46:45;;;;;;;22.98;7.03;;;8.90;99.90;;;;;;5052226;28;20051;-66
2024/02/21 06:49:15;;;;;;;28.98;6.60;;;8.90;99.90;;;;;;5050120;28;20514;-66
2024/02/21 06:51:44;;;;;;;32.80;8.77;;;8.90;99.90;;;;;;5063942;28;20399;-66
2024/02/21 06:54:10;;;;;;;23.55;7.10;;;8.90;99.90;;;;;;5066472;28;21072;-66
2024/02/21 06:56:36;;;;;;;26.65;7.05;;;8.90;99.90;;;;;;5070635;28;20119;-66
2024/02/21 06:59:05;;;;;;;20.52;8.00;;;9.00;99.90;;;;;;5047847;28;20479;-66
2024/02/21 07:01:31;;;;;;;20.92;6.07;;;9.10;99.90;;;;;;5037731;28;20052;-65
2024/02/21 07:03:57;;;;;;;18.45;7.78;;;8.90;99.90;;;;;;5062988;28;20043;-67
2024/02/21 07:06:23;;;;;;;25.10;7.78;;;9.00;99.90;;;;;;5050578;28;20479;-67
2024/02/21 07:08:48;;;;;;;21.95;7.88;;;9.00;99.90;;;;;;5063412;28;20672;-67
2024/02/21 07:11:14;;;;;;;25.58;7.45;;;9.00;99.90;;;;;;5048430;28;20045;-67
2024/02/21 07:13:40;;;;;;;25.40;7.55;;;9.00;99.90;;;;;;5065052;28;20093;-67
2024/02/21 07:16:06;;;;;;;31.08;7.57;;;9.00;99.90;;;;;;5047493;28;20036;-67
2024/02/21 07:18:32;;;;;;;23.35;7.18;;;9.00;99.90;;;;;;5045067;28;20048;-67
2024/02/21 07:20:58;;;;;;;21.42;7.28;;;9.00;99.90;;;;;;5048139;28;20104;-67
2024/02/21 07:23:24;;;;;;;20.75;6.55;;;9.00;99.90;;;;;;5068308;28;20036;-67
2024/02/21 07:25:50;;;;;;;28.17;8.38;;;9.00;99.90;;;;;;5064666;28;20505;-67
2024/02/21 07:28:16;;;;;;;31.77;7.93;;;9.00;99.90;;;;;;5064554;28;20041;-67
2024/02/21 07:30:42;;;;;;;26.77;9.32;;;9.00;99.90;;;;;;5047257;28;20044;-67
2024/02/21 07:33:07;;;;;;;23.23;9.75;;;9.00;99.90;;;;;;5048849;28;20430;-67
2024/02/21 07:35:33;;;;;;;27.33;10.68;;;9.00;99.90;;;;;;5046258;28;20039;-67
2024/02/21 07:37:58;;;;;;;24.08;9.98;;;9.00;99.90;;;;;;5066338;28;20479;-67
2024/02/21 07:40:24;;;;;;;25.02;12.18;;;9.00;99.90;;;;;;5047655;28;20062;-67
2024/02/21 07:42:50;;;;;;;24.58;11.95;;;9.00;99.90;;;;;;5065907;28;20044;-67
2024/02/21 07:45:15;;;;;;;21.35;11.90;;;9.00;99.90;;;;;;5066401;28;20056;-67
2024/02/21 07:47:43;;;;;;;23.75;13.30;;;9.00;99.90;;;;;;5046183;28;20049;-67
2024/02/21 07:50:09;;;;;;;26.77;12.45;;;9.00;99.90;;;;;;5062952;28;20042;-67
2024/02/21 07:52:34;;;;;;;25.58;13.25;;;9.00;99.90;;;;;;5063061;28;20580;-67
2024/02/21 07:55:00;;;;;;;25.40;12.73;;;9.00;99.90;;;;;;5060865;28;20044;-67
2024/02/21 07:57:26;;;;;;;24.63;13.65;;;9.00;99.90;;;;;;5042991;28;20052;-67
2024/02/21 07:59:52;;;;;;;22.92;13.10;;;9.00;99.90;;;;;;5054874;28;20398;-67
2024/02/21 08:02:17;;;;;;;25.30;14.60;;;9.00;99.90;;;;;;5049247;28;20498;-67
2024/02/21 08:04:43;;;;;;;21.65;12.70;;;9.00;99.90;;;;;;5042814;28;20058;-67
2024/02/21 08:07:09;;;;;;;21.63;13.55;;;9.00;99.90;;;;;;5043994;28;20091;-67
2024/02/21 08:09:37;;;;;;;28.38;14.07;;;9.00;99.90;;;;;;5043589;28;20051;-67
2024/02/21 08:12:03;;;;;;;20.98;12.75;;;9.00;99.90;;;;;;5043772;28;20094;-67
2024/02/21 08:14:29;;;;;;;27.02;14.45;;;9.00;99.90;;;;;;5072072;28;20032;-67
2024/02/21 08:16:55;;;;;;;20.67;12.20;;;9.10;99.90;;;;;;5063572;28;20086;-67
2024/02/21 08:19:22;;;;;;;18.45;12.40;;;9.00;99.90;;;;;;5042771;28;20048;-67
2024/02/21 08:21:48;;;;;;;18.95;12.35;;;9.00;99.90;;;;;;5042531;28;20036;-67
2024/02/21 08:24:16;;;;;;;18.70;12.02;;;9.00;99.90;;;;;;5041816;28;20052;-67
2024/02/21 08:26:44;;;;;;;23.10;13.75;;;9.00;99.90;;;;;;5060776;28;20044;-67
2024/02/21 08:29:11;;;;;;;23.60;14.38;;;9.00;99.90;;;;;;5039317;28;20081;-67
2024/02/21 08:31:36;;;;;;;23.83;13.60;;;9.00;99.90;;;;;;5059779;28;20071;-67
2024/02/21 08:34:03;;;;;;;17.38;13.05;;;9.10;99.90;;;;;;5057511;28;20045;-67
2024/02/21 08:36:33;;;;;;;17.55;12.90;;;9.10;99.90;;;;;;5041331;28;20135;-67
2024/02/21 08:38:59;;;;;;;20.67;12.95;;;9.10;99.90;;;;;;5037397;28;20059;-67
2024/02/21 08:41:26;;;;;;;15.43;12.10;;;9.10;99.90;;;;;;5044026;28;20833;-67
2024/02/21 08:43:53;;;;;;;16.98;13.52;;;9.10;99.90;;;;;;5042037;28;20516;-67
2024/02/21 08:46:23;;;;;;;19.58;13.10;;;9.10;99.90;;;;;;5058163;28;20040;-67
2024/02/21 08:48:51;;;;;;;20.25;14.32;;;9.10;99.90;;;;;;5027511;28;20132;-67
2024/02/21 08:51:16;;;;;;;17.88;12.98;;;9.10;99.90;;;;;;5042419;28;20036;-67
2024/02/21 08:53:43;;;;;;;19.65;13.73;;;9.10;99.90;;;;;;5058982;28;21018;-67
2024/02/21 08:56:08;;;;;;;19.75;12.18;;;9.10;99.90;;;;;;5060011;28;20045;-67
2024/02/21 08:58:39;;;;;;;15.98;13.05;;;9.10;99.90;;;;;;5058675;28;20052;-67
2024/02/21 09:01:05;;;;;;;17.58;12.73;;;9.00;99.90;;;;;;5043612;28;20200;-67
2024/02/21 09:03:32;;;;;;;15.20;13.35;;;9.00;99.90;;;;;;5048651;28;20042;-67
2024/02/21 09:05:59;;;;;;;19.13;14.68;;;9.00;99.90;;;;;;5062888;28;20086;-67
2024/02/21 09:08:25;;;;;;;17.92;13.85;;;9.00;99.90;;;;;;5044941;28;20120;-67
2024/02/21 09:10:50;;;;;;;18.80;14.32;;;9.00;99.90;;;;;;5061228;28;20112;-67
2024/02/21 09:13:16;;;;;;;20.48;14.15;;;9.00;99.90;;;;;;5063170;28;20514;-67
2024/02/21 09:15:42;;;;;;;21.17;14.88;;;9.10;99.90;;;;;;5049164;28;20048;-67
2024/02/21 09:18:08;;;;;;;22.60;14.82;;;9.00;99.90;;;;;;5042448;28;20044;-67
2024/02/21 09:20:33;;;;;;;22.38;14.98;;;9.00;99.90;;;;;;5058597;28;20041;-67
2024/02/21 09:22:59;;;;;;;22.50;15.00;;;9.00;99.90;;;;;;5060800;28;20797;-67
2024/02/21 09:25:25;;;;;;;20.38;15.13;;;9.00;99.90;;;;;;5043396;28;20068;-67
2024/02/21 09:27:52;;;;;;;23.60;15.70;;;9.00;99.90;;;;;;5040080;28;20060;-67
2024/02/21 09:30:18;;;;;;;23.20;15.20;;;9.10;99.90;;;;;;5043126;28;20044;-67
2024/02/21 09:32:44;;;;;;;20.02;13.82;;;9.10;99.90;;;;;;5063379;28;20073;-67
2024/02/21 09:35:12;;;;;;;18.77;14.63;;;9.10;99.90;;;;;;5051194;28;20041;-67
2024/02/21 09:37:38;;;;;;;18.27;15.02;;;9.20;99.90;;;;;;5039239;28;20119;-67
2024/02/21 09:40:05;;;;;;;21.85;15.13;;;9.10;99.90;;;;;;5051315;28;20045;-67
2024/02/21 09:42:41;;;;;;;21.92;16.25;;;9.20;99.90;;;;;;5061543;28;20059;-67
2024/02/21 09:45:24;;;;;;;17.33;14.60;;;9.20;99.90;;;;;;5043475;28;20040;-67
2024/02/21 09:48:26;;;;;;;24.38;16.25;;;9.20;99.90;;;;;;5061696;28;20502;-67
2024/02/21 09:50:55;;;;;;;17.08;15.15;;;9.20;99.90;;;;;;5042830;28;20037;-67
2024/02/21 09:53:24;;;;;;;21.55;15.63;;;9.30;99.90;;;;;;5046884;28;20050;-67
2024/02/21 09:55:50;;;;;;;23.63;16.17;;;9.30;99.90;;;;;;5062057;28;20032;-67
2024/02/21 09:58:16;;;;;;;19.73;16.00;;;9.40;99.90;;;;;;5040906;28;20121;-67
2024/02/21 10:00:41;;;;;;;22.60;15.95;;;9.40;99.90;;;;;;5046060;28;20613;-67
2024/02/21 10:03:10;;;;;;;19.80;15.07;;;9.40;99.90;;;;;;5063846;28;20082;-67
2024/02/21 10:05:36;;;;;;;19.52;15.50;;;9.40;99.90;;;;;;5044418;28;20043;-67
2024/02/21 10:08:02;;;;;;;20.60;16.90;;;9.60;99.90;;;;;;5043646;28;20059;-67
2024/02/21 10:10:29;;;;;;;19.60;14.68;;;9.50;99.90;;;;;;5046426;28;20036;-67
2024/02/21 10:12:55;;;;;;;19.33;14.45;;;9.60;99.90;;;;;;5051634;28;20037;-67
2024/02/21 10:15:25;;;;;;;23.45;15.60;;;9.70;99.90;;;;;;5047752;28;20086;-67
2024/02/21 10:17:59;;;;;;;16.75;14.27;;;9.70;99.90;;;;;;5047930;28;20047;-67
2024/02/21 10:20:25;;;;;;;16.88;14.50;;;9.90;99.90;;;;;;5065302;28;20060;-67
2024/02/21 10:23:09;;;;;;;19.35;13.85;;;9.70;99.90;;;;;;5065093;28;20033;-67
2024/02/21 10:25:38;;;;;;;16.23;13.65;;;9.70;99.90;;;;;;5063534;28;20070;-67
2024/02/21 10:28:04;;;;;;;19.85;12.95;;;9.70;99.90;;;;;;5046190;28;20112;-67
2024/02/21 10:30:29;;;;;;;15.57;12.07;;;9.70;99.90;;;;;;5063387;28;20029;-67
2024/02/21 10:32:57;;;;;;;21.48;12.90;;;9.60;99.90;;;;;;5045917;28;20040;-67
2024/02/21 10:35:30;;;;;;;18.23;12.93;;;9.70;99.90;;;;;;5037826;28;20041;-67
2024/02/21 10:37:59;;;;;;;15.63;12.82;;;9.60;99.90;;;;;;5049380;28;20048;-67
2024/02/21 10:40:31;;;;;;;15.95;11.07;;;9.70;99.90;;;;;;5066010;28;20033;-67
2024/02/21 10:43:01;;;;;;;15.57;11.05;;;9.70;99.90;;;;;;5065838;28;20049;-67
2024/02/21 10:45:31;;;;;;;15.27;11.77;;;9.80;99.90;;;;;;5045125;28;20399;-67
2024/02/21 10:48:11;;;;;;;18.13;11.27;;;9.90;99.90;;;;;;5046426;28;20102;-67
2024/02/21 10:50:54;;;;;;;15.57;11.73;;;9.90;99.90;;;;;;5047035;28;20033;-67
2024/02/21 10:53:33;;;;;;;14.82;10.23;;;9.90;99.90;;;;;;5062302;28;20044;-67
2024/02/21 10:56:15;;;;;;;16.00;10.52;;;9.90;99.90;;;;;;5063930;28;20498;-67
2024/02/21 10:58:41;;;;;;;12.43;9.85;;;9.90;99.90;;;;;;5044795;28;20052;-67
2024/02/21 11:01:08;;;;;;;19.58;10.15;;;9.90;99.90;;;;;;5044024;28;20056;-67
2024/02/21 11:03:35;;;;;;;16.27;9.82;;;9.90;99.90;;;;;;5047704;28;20054;-67
2024/02/21 11:06:01;;;;;;;12.27;9.13;;;9.90;99.90;;;;;;5067714;28;20045;-67
2024/02/21 11:08:28;;;;;;;11.95;8.32;;;9.90;99.90;;;;;;5043888;28;20045;-67
2024/02/21 11:10:59;;;;;;;17.80;8.95;;;9.90;99.90;;;;;;5030641;28;20065;-67
2024/02/21 11:13:32;;;;;;;14.05;7.78;;;9.90;99.90;;;;;;5067312;28;20045;-67
2024/02/21 11:16:21;;;;;;;12.93;8.07;;;9.90;99.90;;;;;;5051561;28;20082;-67
2024/02/21 11:18:46;;;;;;;13.75;7.90;;;9.80;99.90;;;;;;5047007;28;20072;-67
2024/02/21 11:21:12;;;;;;;11.70;7.63;;;9.90;99.90;;;;;;5044503;28;20064;-67
2024/02/21 11:23:38;;;;;;;10.57;7.28;;;9.90;99.90;;;;;;5045740;28;20059;-67
2024/02/21 11:26:10;;;;;;;13.93;7.38;;;9.80;99.90;;;;;;5061048;28;20041;-67
2024/02/21 11:28:37;;;;;;;10.93;7.45;;;9.90;99.90;;;;;;5030934;28;20048;-67
2024/02/21 11:31:13;;;;;;;12.30;7.20;;;9.90;99.90;;;;;;5052625;28;20043;-67
2024/02/21 11:33:41;;;;;;;14.07;7.28;;;9.80;99.90;;;;;;5063431;28;20403;-67
2024/02/21 11:36:08;;;;;;;12.35;7.63;;;9.90;99.90;;;;;;5063015;28;20442;-67
2024/02/21 11:38:33;;;;;;;13.63;7.22;;;9.80;99.90;;;;;;5044774;28;20075;-66
2024/02/21 11:40:59;;;;;;;8.52;6.90;;;9.80;99.90;;;;;;5047975;28;20501;-67
2024/02/21 11:43:25;;;;;;;13.30;8.07;;;9.90;99.90;;;;;;5046226;28;20040;-67
2024/02/21 11:46:01;;;;;;;12.05;7.35;;;9.80;99.90;;;;;;5048341;28;20045;-67
2024/02/21 11:48:27;;;;;;;10.05;6.63;;;9.80;99.90;;;;;;5043354;28;20137;-67
2024/02/21 11:50:56;;;;;;;11.02;6.50;;;9.90;99.90;;;;;;5064516;28;20075;-67
2024/02/21 11:53:22;;;;;;;11.57;6.53;;;9.90;99.90;;;;;;5076361;28;20066;-67
2024/02/21 11:55:49;;;;;;;15.98;6.90;;;9.80;99.90;;;;;;5047219;28;20528;-66
2024/02/21 11:58:15;;;;;;;8.30;6.18;;;9.80;99.90;;;;;;5043991;28;20045;-67
2024/02/21 12:00:41;;;;;;;9.00;6.47;;;9.80;99.90;;;;;;5042351;28;20041;-67
2024/02/21 12:03:07;;;;;;;9.25;6.53;;;9.80;99.90;;;;;;5045565;28;20540;-67
2024/02/21 12:05:33;;;;;;;11.85;6.63;;;9.90;99.90;;;;;;5045961;28;20046;-67
2024/02/21 12:07:59;;;;;;;8.52;6.55;;;9.90;99.90;;;;;;5050330;28;20087;-67
2024/02/21 12:10:27;;;;;;;10.90;6.40;;;10.00;99.90;;;;;;5041219;28;20119;-67
2024/02/21 12:12:54;;;;;;;8.90;5.50;;;9.90;99.90;;;;;;5042292;28;20045;-67
2024/02/21 12:15:20;;;;;;;9.13;5.82;;;9.90;99.90;;;;;;5048665;28;20040;-67
2024/02/21 12:17:46;;;;;;;12.50;6.43;;;9.90;99.90;;;;;;5045364;28;20059;-67
2024/02/21 12:20:12;;;;;;;10.82;6.43;;;9.90;99.90;;;;;;5048739;28;20036;-67
2024/02/21 12:22:44;;;;;;;11.27;6.63;;;10.00;99.90;;;;;;5062506;28;20044;-67
2024/02/21 12:25:22;;;;;;;11.43;6.95;;;10.00;99.90;;;;;;5036833;28;20036;-67
2024/02/21 12:27:49;;;;;;;9.02;5.72;;;10.00;99.90;;;;;;5041321;28;20550;-67
2024/02/21 12:30:18;;;;;;;10.32;5.88;;;9.90;99.90;;;;;;5027692;28;20032;-67
2024/02/21 12:32:48;;;;;;;9.02;6.00;;;10.00;99.90;;;;;;5061634;28;20040;-67
2024/02/21 12:35:14;;;;;;;13.90;6.40;;;10.10;99.90;;;;;;5061036;28;20083;-67
2024/02/21 12:37:39;;;;;;;10.75;6.90;;;10.00;99.90;;;;;;5046126;28;20076;-67
2024/02/21 12:40:06;;;;;;;8.98;5.70;;;10.00;99.90;;;;;;5060427;28;20040;-67
2024/02/21 12:42:33;;;;;;;7.28;5.45;;;10.00;99.90;;;;;;5028021;28;20032;-66